createdAt,value
2017-12-20T00:01:05.258Z,15.33
2017-12-20T00:06:06.077Z,14.60
2017-12-20T00:11:06.882Z,14.67
2017-12-20T00:16:10.777Z,12.93
2017-12-20T00:21:12.361Z,16.07
2017-12-20T00:26:13.185Z,13.57
2017-12-20T00:31:13.966Z,14.27
2017-12-20T00:36:14.783Z,12.83
2017-12-20T00:41:29.173Z,13.90
2017-12-20T00:46:29.965Z,12.50
2017-12-20T00:51:30.749Z,11.67
2017-12-20T00:56:31.545Z,12.10
2017-12-20T01:01:32.343Z,12.83
2017-12-20T01:06:33.162Z,12.93
2017-12-20T01:11:37.564Z,10.10
2017-12-20T01:16:38.345Z,11.20
2017-12-20T01:21:39.161Z,11.90
2017-12-20T01:26:39.959Z,12.47
2017-12-20T01:31:40.771Z,12.73
2017-12-20T01:36:41.622Z,12.20
2017-12-20T01:41:42.493Z,11.00
2017-12-20T01:46:43.358Z,12.00
2017-12-20T01:51:44.176Z,11.17
2017-12-20T01:56:44.985Z,11.77
2017-12-20T02:01:45.782Z,11.13
2017-12-20T02:06:46.599Z,11.73
2017-12-20T02:11:47.441Z,12.93
2017-12-20T02:16:48.256Z,10.27
2017-12-20T02:22:13.588Z,10.43
2017-12-20T02:27:14.383Z,11.60
2017-12-20T02:32:15.204Z,11.20
2017-12-20T02:37:16.043Z,10.00
2017-12-20T02:42:16.879Z,9.50
2017-12-20T02:47:17.697Z,10.57
2017-12-20T02:52:31.678Z,9.87
2017-12-20T02:57:32.485Z,9.13
2017-12-20T03:02:33.273Z,9.33
2017-12-20T03:07:34.077Z,10.13
2017-12-20T03:12:34.875Z,10.20
2017-12-20T03:17:35.717Z,10.60
2017-12-20T03:22:36.522Z,8.70
2017-12-20T03:27:37.313Z,9.60
2017-12-20T03:32:38.106Z,9.53
2017-12-20T03:37:49.302Z,9.07
2017-12-20T03:42:50.100Z,8.27
2017-12-20T03:47:50.911Z,8.10
2017-12-20T03:52:51.706Z,10.20
2017-12-20T03:57:52.541Z,9.00
2017-12-20T04:02:53.342Z,8.10
2017-12-20T04:07:54.157Z,11.20
2017-12-20T04:13:16.345Z,9.30
2017-12-20T04:18:17.150Z,9.90
2017-12-20T04:23:17.958Z,9.70
2017-12-20T04:28:18.765Z,9.70
2017-12-20T04:33:19.558Z,11.33
2017-12-20T04:38:20.362Z,10.53
2017-12-20T04:43:21.160Z,10.67
2017-12-20T04:48:28.528Z,11.00
2017-12-20T04:53:29.416Z,10.10
2017-12-20T04:58:30.201Z,10.10
2017-12-20T05:03:31.044Z,10.57
2017-12-20T05:08:31.817Z,12.63
2017-12-20T05:13:32.659Z,11.17
2017-12-20T05:18:33.476Z,8.97
2017-12-20T05:23:36.333Z,10.80
2017-12-20T05:28:37.151Z,11.27
2017-12-20T05:33:37.945Z,11.00
2017-12-20T05:38:38.772Z,10.50
2017-12-20T05:43:39.570Z,11.97
2017-12-20T05:48:40.398Z,10.97
2017-12-20T05:53:48.096Z,11.03
2017-12-20T05:59:13.534Z,10.90
2017-12-20T06:04:14.322Z,10.57
2017-12-20T06:09:21.593Z,9.77
2017-12-20T06:14:22.399Z,10.93
2017-12-20T06:19:23.253Z,10.73
2017-12-20T06:24:24.033Z,8.97
2017-12-20T06:29:24.938Z,9.13
2017-12-20T06:34:25.775Z,9.93
2017-12-20T06:39:26.622Z,9.67
2017-12-20T06:44:27.440Z,10.80
2017-12-20T06:49:28.240Z,10.10
2017-12-20T06:54:29.025Z,9.40
2017-12-20T06:59:29.824Z,9.60
2017-12-20T07:04:47.881Z,11.63
2017-12-20T07:09:48.689Z,11.70
2017-12-20T07:14:49.489Z,11.47
2017-12-20T07:19:50.267Z,10.77
2017-12-20T07:24:51.058Z,11.33
2017-12-20T07:29:51.862Z,13.63
2017-12-20T07:34:52.682Z,12.67
2017-12-20T07:39:53.499Z,12.90
2017-12-20T07:44:54.320Z,14.40
2017-12-20T07:49:55.163Z,14.13
2017-12-20T07:54:56.032Z,13.80
2017-12-20T07:59:56.885Z,15.17
2017-12-20T08:04:57.749Z,16.20
2017-12-20T08:09:58.586Z,13.53
2017-12-20T08:14:59.429Z,13.93
2017-12-20T08:20:00.263Z,15.17
2017-12-20T08:25:01.141Z,13.90
2017-12-20T08:30:01.963Z,13.27
2017-12-20T08:35:02.857Z,13.60
2017-12-20T08:40:03.681Z,16.10
2017-12-20T08:45:04.520Z,14.43
2017-12-20T08:50:05.359Z,14.80
2017-12-20T08:55:06.225Z,13.30
2017-12-20T09:00:07.093Z,14.63
2017-12-20T09:05:23.883Z,14.47
2017-12-20T09:10:28.686Z,14.00
2017-12-20T09:15:29.489Z,13.20
2017-12-20T09:20:41.375Z,15.20
2017-12-20T09:25:42.209Z,14.30
2017-12-20T09:30:43.066Z,14.47
2017-12-20T09:35:43.931Z,14.10
2017-12-20T09:40:44.796Z,13.07
2017-12-20T09:45:45.633Z,15.67
2017-12-20T09:50:46.458Z,14.10
2017-12-20T09:55:47.313Z,15.43
2017-12-20T10:00:51.743Z,14.30
2017-12-20T10:05:52.584Z,12.83
2017-12-20T10:10:53.397Z,13.90
2017-12-20T10:15:54.476Z,14.60
2017-12-20T10:20:59.806Z,12.20
2017-12-20T10:26:05.294Z,12.10
2017-12-20T10:31:06.286Z,12.67
2017-12-20T10:36:07.347Z,11.63
2017-12-20T10:41:10.417Z,13.20
2017-12-20T10:46:11.510Z,13.23
2017-12-20T10:51:12.518Z,12.60
2017-12-20T10:56:13.619Z,13.00
2017-12-20T11:01:15.063Z,11.90
2017-12-20T11:06:16.278Z,19.20
2017-12-20T11:11:17.484Z,10.77
2017-12-20T11:16:18.591Z,10.77
2017-12-20T11:21:19.603Z,11.63
2017-12-20T11:26:27.174Z,11.97
2017-12-20T11:31:29.322Z,10.17
2017-12-20T11:36:30.578Z,9.90
2017-12-20T11:41:31.637Z,9.50
2017-12-20T11:46:32.752Z,12.80
2017-12-20T11:51:46.673Z,14.80
2017-12-20T11:56:55.654Z,12.00
2017-12-20T12:07:32.876Z,10.87
2017-12-20T12:12:33.882Z,11.53
2017-12-20T12:17:34.996Z,12.63
2017-12-20T12:22:36.085Z,12.53
2017-12-20T12:27:37.216Z,13.67
2017-12-20T12:32:53.660Z,14.27
2017-12-20T12:37:59.862Z,13.73
2017-12-20T12:48:39.398Z,13.37
2017-12-20T12:59:21.957Z,12.30
2017-12-20T13:04:49.020Z,12.00
2017-12-20T13:15:30.234Z,11.00
2017-12-20T13:20:31.323Z,13.60
2017-12-20T13:25:32.368Z,11.67
2017-12-20T13:30:33.415Z,12.53
2017-12-20T13:35:34.457Z,13.17
2017-12-20T13:40:35.535Z,11.77
2017-12-20T13:45:56.184Z,14.30
2017-12-20T13:50:57.317Z,12.73
2017-12-20T13:55:58.350Z,13.90
2017-12-20T14:00:59.439Z,15.13
2017-12-20T14:06:00.477Z,13.50
2017-12-20T14:27:25.234Z,12.30
2017-12-20T14:32:26.298Z,11.53
2017-12-20T14:37:30.391Z,12.10
2017-12-20T14:42:31.483Z,11.27
2017-12-20T14:47:32.531Z,17.40
2017-12-20T14:52:40.369Z,20.63
2017-12-20T14:57:41.398Z,21.53
2017-12-20T15:02:42.462Z,21.83
2017-12-20T15:07:43.489Z,22.27
2017-12-20T15:12:44.548Z,24.27
2017-12-20T15:17:45.601Z,25.03
2017-12-20T15:22:46.698Z,26.43
2017-12-20T15:27:49.772Z,21.40
2017-12-20T15:32:50.877Z,25.23
2017-12-20T15:37:51.967Z,22.93
2017-12-20T15:42:52.965Z,26.57
2017-12-20T15:47:54.970Z,25.20
2017-12-20T15:53:01.021Z,24.10
2017-12-20T15:58:07.814Z,27.37
2017-12-20T16:03:08.800Z,24.53
2017-12-20T16:08:09.972Z,24.10
2017-12-20T16:13:11.002Z,23.60
2017-12-20T16:18:12.050Z,26.97
2017-12-20T16:23:17.830Z,24.10
2017-12-20T16:28:19.601Z,25.77
2017-12-20T16:33:20.694Z,23.97
2017-12-20T16:38:23.831Z,25.37
2017-12-20T16:43:25.975Z,22.53
2017-12-20T16:48:27.074Z,27.87
2017-12-20T16:53:40.451Z,24.53
2017-12-20T16:58:41.538Z,28.20
2017-12-20T17:03:43.064Z,26.40
2017-12-20T17:08:48.941Z,25.73
2017-12-20T17:13:50.011Z,25.33
2017-12-20T17:18:56.604Z,30.23
2017-12-20T17:23:57.763Z,27.97
2017-12-20T17:29:00.882Z,25.47
2017-12-20T17:34:01.976Z,25.60
2017-12-20T17:39:02.988Z,26.03
2017-12-20T17:44:04.814Z,26.80
2017-12-20T17:49:23.328Z,28.00
2017-12-20T17:54:24.449Z,27.40
2017-12-20T17:59:25.527Z,27.90
2017-12-20T18:04:34.499Z,26.63
2017-12-20T18:09:35.701Z,26.27
2017-12-20T18:14:36.757Z,28.90
2017-12-20T18:19:37.820Z,26.80
2017-12-20T18:24:42.202Z,25.90
2017-12-20T18:29:49.882Z,28.77
2017-12-20T18:34:51.041Z,28.60
2017-12-20T18:39:52.027Z,28.77
2017-12-20T18:44:53.173Z,28.20
2017-12-20T18:49:54.188Z,29.37
2017-12-20T18:54:55.301Z,24.77
2017-12-20T18:59:56.281Z,24.60
2017-12-20T19:04:59.411Z,24.10
2017-12-20T19:10:00.480Z,25.10
2017-12-20T19:15:02.723Z,25.10
2017-12-20T19:20:03.938Z,22.00
2017-12-20T19:25:12.651Z,30.73
2017-12-20T19:30:13.719Z,22.23
2017-12-20T19:35:16.881Z,23.60
2017-12-20T19:40:17.973Z,22.07
2017-12-20T19:45:19.110Z,21.93
2017-12-20T19:50:20.187Z,25.30
2017-12-20T19:55:21.174Z,24.03
2017-12-20T20:00:22.292Z,23.87
2017-12-20T20:05:23.327Z,26.20
2017-12-20T20:10:24.433Z,25.90
2017-12-20T20:15:26.297Z,25.00
2017-12-20T20:20:27.379Z,24.80
2017-12-20T20:25:28.470Z,26.07
2017-12-20T20:30:29.503Z,24.60
2017-12-20T20:35:30.516Z,25.43
2017-12-20T20:40:34.885Z,22.83
2017-12-20T20:45:41.915Z,16.80
2017-12-20T20:50:42.740Z,11.47
2017-12-20T20:55:43.631Z,7.90
2017-12-20T21:00:51.202Z,8.73
2017-12-20T21:05:54.135Z,7.47
2017-12-20T21:10:55.005Z,9.10
2017-12-20T21:15:55.891Z,8.30
2017-12-20T21:20:56.776Z,15.90
2017-12-20T21:25:57.673Z,9.90
2017-12-20T21:30:58.553Z,8.00
2017-12-20T21:36:01.164Z,12.37
2017-12-20T21:41:02.077Z,19.70
2017-12-20T21:46:06.513Z,21.20
2017-12-20T21:51:14.125Z,21.30
2017-12-20T21:56:14.992Z,18.90
2017-12-20T22:01:15.904Z,21.50
2017-12-20T22:06:16.780Z,20.83
2017-12-20T22:11:18.685Z,20.90
2017-12-20T22:16:19.572Z,22.90
2017-12-20T22:21:23.923Z,21.73
2017-12-20T22:26:24.824Z,21.90
2017-12-20T22:31:26.729Z,22.80
2017-12-20T22:36:27.616Z,21.33
2017-12-20T22:41:28.504Z,24.57
2017-12-20T22:46:29.354Z,22.67
2017-12-20T22:51:30.260Z,22.07
2017-12-20T22:56:31.160Z,21.10
2017-12-20T23:01:35.418Z,20.97
2017-12-20T23:06:39.705Z,20.53
2017-12-20T23:11:40.557Z,20.20
2017-12-20T23:16:41.447Z,19.50
2017-12-20T23:21:42.373Z,19.30
2017-12-20T23:26:43.222Z,16.90
2017-12-20T23:31:44.128Z,17.50
2017-12-20T23:36:45.035Z,16.20
2017-12-20T23:41:45.868Z,15.30
2017-12-20T23:46:46.751Z,14.73
2017-12-20T23:51:47.575Z,13.27
2017-12-20T23:56:48.421Z,12.00
